Time;durP1;ratioP1;P1;durP2;ratioP2;P2;SDS_P1;SDS_P2;PMS_P1;PMS_P2;Temp;Humidity;BMP_temperature;BMP_pressure;BME280_temperature;BME280_humidity;BME280_pressure;Samples;Min_cycle;Max_cycle;Signal;HPM_P1;HPM_P2
2020/12/26 00:01:20;;;;;;;53.60;37.85;;;8.40;92.30;;;;;;5097314;28;20084;-51
2020/12/26 00:03:46;;;;;;;84.13;52.50;;;8.50;92.50;;;;;;5116167;28;20102;-48
2020/12/26 00:06:19;;;;;;;92.57;56.03;;;8.60;91.70;;;;;;5116083;28;20099;-49
2020/12/26 00:08:46;;;;;;;74.00;45.88;;;8.80;91.60;;;;;;5115674;28;20475;-52
2020/12/26 00:11:14;;;;;;;68.35;41.75;;;8.80;91.50;;;;;;5116051;28;20019;-49
2020/12/26 00:13:40;;;;;;;67.47;43.90;;;9.00;91.00;;;;;;5115803;28;20482;-49
2020/12/26 00:16:07;;;;;;;60.65;39.92;;;9.00;90.70;;;;;;5115995;28;20028;-48
2020/12/26 00:18:34;;;;;;;47.20;33.30;;;9.20;90.50;;;;;;5115954;28;20024;-48
2020/12/26 00:21:01;;;;;;;39.78;29.85;;;9.30;90.20;;;;;;5115612;28;20119;-49
2020/12/26 00:23:26;;;;;;;41.13;30.65;;;9.20;90.10;;;;;;5115642;28;20034;-49
2020/12/26 00:25:52;;;;;;;33.90;27.80;;;9.30;90.10;;;;;;5115764;28;20020;-49
2020/12/26 00:28:18;;;;;;;34.70;26.15;;;9.40;90.10;;;;;;5115451;28;20028;-49
2020/12/26 00:30:44;;;;;;;31.88;26.23;;;9.40;89.70;;;;;;5115426;28;20044;-49
2020/12/26 00:33:10;;;;;;;40.72;33.42;;;9.50;89.50;;;;;;5115601;28;20032;-49
2020/12/26 00:35:36;;;;;;;43.47;33.47;;;9.50;90.10;;;;;;5115445;28;20027;-48
2020/12/26 00:38:01;;;;;;;39.25;29.13;;;9.40;89.90;;;;;;5115333;28;20019;-48
2020/12/26 00:40:27;;;;;;;34.20;26.17;;;9.20;89.20;;;;;;5115574;28;20052;-48
2020/12/26 00:42:53;;;;;;;36.17;26.80;;;9.10;90.00;;;;;;5115227;28;20487;-48
2020/12/26 00:45:19;;;;;;;36.03;26.13;;;9.10;90.20;;;;;;5062737;28;20040;-48
2020/12/26 00:47:44;;;;;;;39.40;32.20;;;8.90;90.30;;;;;;5115203;28;20487;-48
2020/12/26 00:50:10;;;;;;;42.85;35.67;;;8.80;90.70;;;;;;5115063;28;20106;-48
2020/12/26 00:52:36;;;;;;;42.70;35.42;;;8.70;91.00;;;;;;5115276;28;20359;-48
2020/12/26 00:55:03;;;;;;;44.13;32.60;;;9.00;90.60;;;;;;5113481;28;20031;-49
2020/12/26 00:57:28;;;;;;;46.00;32.63;;;9.20;90.20;;;;;;5115023;28;20069;-48
2020/12/26 00:59:54;;;;;;;45.97;34.53;;;9.30;89.70;;;;;;5114874;28;20555;-48
2020/12/26 01:02:20;;;;;;;44.47;33.63;;;9.40;89.50;;;;;;5114852;28;20402;-48
2020/12/26 01:04:46;;;;;;;40.88;34.97;;;9.40;89.50;;;;;;5114738;28;20375;-48
2020/12/26 01:07:12;;;;;;;45.63;33.95;;;9.20;89.10;;;;;;5114933;28;20027;-48
2020/12/26 01:09:38;;;;;;;45.90;34.20;;;9.10;89.50;;;;;;5114905;28;20032;-48
2020/12/26 01:12:04;;;;;;;44.17;32.95;;;9.10;90.10;;;;;;5114623;28;20559;-49
2020/12/26 01:14:30;;;;;;;43.67;32.13;;;9.00;90.20;;;;;;5114773;28;20028;-48
2020/12/26 01:16:56;;;;;;;43.53;31.95;;;9.00;90.00;;;;;;5095883;28;20057;-48
2020/12/26 01:19:21;;;;;;;48.95;33.80;;;9.20;89.60;;;;;;5095251;28;20089;-48
2020/12/26 01:21:50;;;;;;;45.47;33.22;;;9.30;89.30;;;;;;5114552;27;20027;-48
2020/12/26 01:24:21;;;;;;;64.18;44.00;;;9.30;88.80;;;;;;5114404;28;20020;-48
2020/12/26 01:26:50;;;;;;;66.20;43.20;;;9.10;89.50;;;;;;5114448;28;20466;-49
2020/12/26 01:29:17;;;;;;;57.42;42.22;;;9.00;90.30;;;;;;5114319;28;20076;-48
2020/12/26 01:31:47;;;;;;;63.33;43.13;;;8.90;90.50;;;;;;5095751;28;20114;-48
2020/12/26 01:34:13;;;;;;;54.72;37.75;;;8.80;90.50;;;;;;5114293;28;20098;-48
2020/12/26 01:36:39;;;;;;;52.25;36.70;;;8.90;90.30;;;;;;5114436;28;20119;-48
2020/12/26 01:39:04;;;;;;;55.85;37.35;;;9.10;89.30;;;;;;5095606;28;20034;-48
2020/12/26 01:41:30;;;;;;;54.20;38.97;;;9.00;89.70;;;;;;5114254;28;20035;-49
2020/12/26 01:44:01;;;;;;;52.47;36.95;;;8.90;90.10;;;;;;5114323;28;20019;-48
2020/12/26 01:46:29;;;;;;;48.67;34.00;;;8.50;91.20;;;;;;5114588;28;20028;-48
2020/12/26 01:49:04;;;;;;;43.40;31.75;;;8.40;91.30;;;;;;5114059;27;20063;-48
2020/12/26 01:51:31;;;;;;;45.20;32.70;;;8.20;91.60;;;;;;5114123;28;20383;-48
2020/12/26 01:53:58;;;;;;;48.05;34.03;;;8.30;91.70;;;;;;5114073;28;20035;-48
2020/12/26 01:56:25;;;;;;;43.65;32.88;;;8.40;91.20;;;;;;5113948;28;20062;-48
2020/12/26 01:58:51;;;;;;;43.25;32.42;;;8.50;91.00;;;;;;5112429;28;20477;-48
2020/12/26 02:01:16;;;;;;;46.67;33.63;;;8.80;90.40;;;;;;5114007;28;20062;-48
2020/12/26 02:03:42;;;;;;;46.20;32.60;;;8.80;90.10;;;;;;5113824;28;20027;-48
2020/12/26 02:06:09;;;;;;;45.88;34.83;;;8.70;90.00;;;;;;5113850;28;20027;-48
2020/12/26 02:08:36;;;;;;;49.92;35.83;;;8.70;90.50;;;;;;5114075;28;20030;-48
2020/12/26 02:11:05;;;;;;;51.35;37.47;;;8.80;90.20;;;;;;5114254;28;20077;-48
2020/12/26 02:13:32;;;;;;;53.58;38.90;;;8.90;89.20;;;;;;5113697;28;20111;-48
2020/12/26 02:16:05;;;;;;;45.53;35.38;;;8.90;89.70;;;;;;5113745;28;20359;-48
2020/12/26 02:18:35;;;;;;;46.17;33.28;;;9.10;89.10;;;;;;5113746;28;20043;-49
2020/12/26 02:21:02;;;;;;;46.50;34.75;;;9.10;89.40;;;;;;5113680;28;20047;-48
2020/12/26 02:23:28;;;;;;;38.88;29.08;;;9.20;89.30;;;;;;5113795;28;20060;-48
2020/12/26 02:25:55;;;;;;;37.58;28.33;;;9.20;88.70;;;;;;5094914;28;20059;-48
2020/12/26 02:28:21;;;;;;;37.20;28.30;;;9.20;88.60;;;;;;5113734;28;20031;-48
2020/12/26 02:30:47;;;;;;;34.72;27.95;;;9.30;88.00;;;;;;5114475;28;20039;-49
2020/12/26 02:33:13;;;;;;;37.00;29.23;;;9.30;88.20;;;;;;5117786;28;20032;-48
2020/12/26 02:35:39;;;;;;;44.05;33.45;;;9.20;87.90;;;;;;5117946;28;20028;-48
2020/12/26 02:38:04;;;;;;;44.10;33.75;;;9.20;88.30;;;;;;5098903;28;20038;-48
2020/12/26 02:40:30;;;;;;;46.40;35.13;;;9.30;88.30;;;;;;5117649;28;20035;-48
2020/12/26 02:42:56;;;;;;;42.17;32.78;;;9.30;88.00;;;;;;5117794;28;20028;-48
2020/12/26 02:45:21;;;;;;;42.80;33.53;;;9.40;87.70;;;;;;5098746;28;20086;-48
2020/12/26 02:47:47;;;;;;;53.33;37.22;;;9.30;86.80;;;;;;5098860;28;20032;-48
2020/12/26 02:50:13;;;;;;;55.15;39.72;;;9.20;88.70;;;;;;5117629;28;20088;-48
2020/12/26 02:52:39;;;;;;;55.17;39.58;;;9.30;87.70;;;;;;5098556;28;20448;-48
2020/12/26 02:55:04;;;;;;;49.53;37.08;;;9.20;88.30;;;;;;5065096;28;20108;-48
2020/12/26 02:57:30;;;;;;;47.15;34.85;;;9.20;88.00;;;;;;5047970;28;20122;-48
2020/12/26 02:59:56;;;;;;;45.60;34.65;;;9.10;88.00;;;;;;5117325;27;20115;-49
2020/12/26 03:02:22;;;;;;;53.40;37.80;;;9.00;89.10;;;;;;5117399;28;20062;-48
2020/12/26 03:04:47;;;;;;;49.78;33.88;;;8.80;90.00;;;;;;5098699;28;20048;-48
2020/12/26 03:07:13;;;;;;;41.40;32.38;;;8.70;90.00;;;;;;5117211;28;20024;-48
2020/12/26 03:09:39;;;;;;;37.65;29.00;;;8.60;90.20;;;;;;5116931;28;20067;-48
2020/12/26 03:12:04;;;;;;;42.30;32.05;;;8.30;90.60;;;;;;5098512;28;20054;-48
2020/12/26 03:14:30;;;;;;;39.85;31.15;;;8.20;91.10;;;;;;5115333;28;20058;-48
2020/12/26 03:16:56;;;;;;;39.85;31.45;;;8.20;91.20;;;;;;5117165;28;20027;-49
2020/12/26 03:19:21;;;;;;;44.67;30.88;;;8.30;91.20;;;;;;5116563;28;20097;-48
2020/12/26 03:21:47;;;;;;;40.75;30.95;;;8.20;91.40;;;;;;5116936;28;20024;-48
2020/12/26 03:24:13;;;;;;;41.30;30.30;;;8.00;91.50;;;;;;5116827;28;20098;-48
2020/12/26 03:26:38;;;;;;;37.22;28.85;;;7.90;92.00;;;;;;5116845;28;20077;-48
2020/12/26 03:29:04;;;;;;;38.22;29.77;;;7.90;92.00;;;;;;5116715;28;20027;-48
2020/12/26 03:31:30;;;;;;;34.75;27.55;;;8.00;91.70;;;;;;5098094;28;20042;-48
2020/12/26 03:33:55;;;;;;;34.22;27.67;;;8.10;91.40;;;;;;5116693;28;20028;-49
2020/12/26 03:36:21;;;;;;;37.63;27.52;;;8.00;91.40;;;;;;5116637;28;20022;-49
2020/12/26 03:38:47;;;;;;;33.47;25.08;;;7.90;91.70;;;;;;5097777;28;20039;-48
2020/12/26 03:41:13;;;;;;;35.08;25.75;;;8.00;92.20;;;;;;5116170;28;20027;-48
2020/12/26 03:43:38;;;;;;;33.70;24.85;;;7.90;92.70;;;;;;5116314;28;20020;-48
2020/12/26 03:46:04;;;;;;;33.90;25.15;;;7.90;92.70;;;;;;5116395;28;20107;-48
2020/12/26 03:48:30;;;;;;;32.55;24.98;;;7.80;93.10;;;;;;5116463;28;20027;-48
2020/12/26 03:50:55;;;;;;;32.05;24.20;;;7.80;92.70;;;;;;5097447;28;20480;-48
2020/12/26 03:53:21;;;;;;;29.42;24.13;;;7.80;93.10;;;;;;5116338;28;20099;-48
2020/12/26 03:55:47;;;;;;;28.45;23.20;;;7.70;92.90;;;;;;5097594;28;20040;-48
2020/12/26 03:58:12;;;;;;;32.20;24.35;;;7.70;93.80;;;;;;5097651;28;20032;-48
2020/12/26 04:00:38;;;;;;;27.45;21.40;;;7.70;92.80;;;;;;5115987;28;20106;-48
2020/12/26 04:03:04;;;;;;;26.95;21.75;;;7.50;92.90;;;;;;5096994;28;20040;-48
2020/12/26 04:05:30;;;;;;;29.48;22.08;;;7.40;93.20;;;;;;5116035;28;20027;-48
2020/12/26 04:07:55;;;;;;;27.85;22.13;;;7.50;92.80;;;;;;5116088;28;20028;-48
2020/12/26 04:10:21;;;;;;;29.15;22.88;;;7.40;92.90;;;;;;5063398;28;20051;-48
2020/12/26 04:12:47;;;;;;;30.13;22.00;;;7.50;92.80;;;;;;5097013;28;20704;-48
2020/12/26 04:15:13;;;;;;;28.52;23.05;;;7.50;92.80;;;;;;5115943;28;20060;-48
2020/12/26 04:17:38;;;;;;;32.45;22.75;;;7.40;92.90;;;;;;5096903;28;20042;-48
2020/12/26 04:20:04;;;;;;;28.17;21.75;;;7.30;93.10;;;;;;5096725;28;20048;-48
2020/12/26 04:22:30;;;;;;;29.88;21.77;;;7.30;93.00;;;;;;5115701;28;20031;-48
2020/12/26 04:24:55;;;;;;;27.52;21.17;;;7.30;93.00;;;;;;5115694;28;20026;-48
2020/12/26 04:27:21;;;;;;;32.22;23.05;;;7.40;92.60;;;;;;5115889;28;20077;-48
2020/12/26 04:29:48;;;;;;;31.13;22.52;;;7.50;92.60;;;;;;5115544;28;20125;-48
2020/12/26 04:32:13;;;;;;;30.42;22.58;;;7.70;91.90;;;;;;5115630;28;20032;-48
2020/12/26 04:34:39;;;;;;;28.00;22.38;;;7.80;91.90;;;;;;5115456;28;20379;-48
2020/12/26 04:37:05;;;;;;;41.28;28.48;;;7.80;91.80;;;;;;5115537;28;20123;-48
2020/12/26 04:39:31;;;;;;;31.48;24.38;;;7.60;92.00;;;;;;5115673;27;20051;-48
2020/12/26 04:41:56;;;;;;;66.13;43.25;;;7.30;93.20;;;;;;5115450;28;20023;-48
2020/12/26 04:44:24;;;;;;;31.67;24.13;;;7.30;93.40;;;;;;5113862;28;20036;-48
2020/12/26 04:46:50;;;;;;;33.22;25.75;;;7.40;93.10;;;;;;5115431;28;20100;-48
2020/12/26 04:49:20;;;;;;;57.28;41.30;;;7.40;92.80;;;;;;5115199;28;20028;-48
2020/12/26 04:51:50;;;;;;;69.53;50.03;;;7.30;93.20;;;;;;5115266;28;20046;-48
2020/12/26 04:54:26;;;;;;;71.82;49.22;;;7.00;93.60;;;;;;5114108;28;20077;-48
2020/12/26 04:56:56;;;;;;;52.75;43.58;;;7.10;94.00;;;;;;5114972;28;20031;-48
2020/12/26 04:59:22;;;;;;;39.13;28.30;;;6.90;93.90;;;;;;5115026;28;20420;-48
2020/12/26 05:01:49;;;;;;;42.40;32.47;;;6.80;94.20;;;;;;5115057;28;20102;-48
2020/12/26 05:04:15;;;;;;;33.88;25.75;;;6.80;94.50;;;;;;5114777;28;20027;-48
2020/12/26 05:06:54;;;;;;;33.65;22.35;;;6.80;94.50;;;;;;5114719;28;20467;-48
2020/12/26 05:09:21;;;;;;;40.08;25.85;;;6.60;94.80;;;;;;5115256;28;20066;-48
2020/12/26 05:11:52;;;;;;;37.67;26.75;;;6.60;95.40;;;;;;5114942;28;20452;-48
2020/12/26 05:14:18;;;;;;;39.03;25.85;;;6.50;95.60;;;;;;5096011;28;20032;-48
2020/12/26 05:16:44;;;;;;;36.35;26.27;;;6.60;95.40;;;;;;5114661;28;20467;-48
2020/12/26 05:19:10;;;;;;;41.95;28.83;;;6.80;95.40;;;;;;5095922;28;20028;-48
2020/12/26 05:21:36;;;;;;;38.63;25.30;;;6.70;96.00;;;;;;5114646;28;20498;-48
2020/12/26 05:24:03;;;;;;;16.63;11.20;;;6.70;95.40;;;;;;5114586;28;20102;-48
2020/12/26 05:26:30;;;;;;;34.33;23.52;;;6.60;94.60;;;;;;5095652;28;20386;-48
2020/12/26 05:29:01;;;;;;;31.35;21.05;;;6.60;95.50;;;;;;5114573;28;20379;-48
2020/12/26 05:31:53;;;;;;;29.27;20.67;;;6.60;95.00;;;;;;5114529;28;20024;-48
2020/12/26 05:34:21;;;;;;;27.67;19.38;;;6.50;95.30;;;;;;5113425;28;20521;-48
2020/12/26 05:36:47;;;;;;;28.23;19.25;;;6.60;94.50;;;;;;5113172;28;20036;-48
2020/12/26 05:39:13;;;;;;;21.45;14.35;;;6.60;94.30;;;;;;5113304;28;20020;-48
2020/12/26 05:41:44;;;;;;;24.77;17.65;;;6.50;94.20;;;;;;5113183;28;20055;-49
2020/12/26 05:44:11;;;;;;;23.48;17.23;;;6.50;94.20;;;;;;5093947;28;20042;-48
2020/12/26 05:46:36;;;;;;;27.10;18.90;;;6.40;94.60;;;;;;5093713;28;20043;-48
2020/12/26 05:49:25;;;;;;;25.90;18.15;;;6.40;94.60;;;;;;5113044;28;20024;-48
2020/12/26 05:51:53;;;;;;;22.15;15.13;;;6.30;94.80;;;;;;5113008;28;20024;-48
2020/12/26 05:54:20;;;;;;;23.80;17.17;;;6.30;94.40;;;;;;5113007;28;20019;-48
2020/12/26 05:56:45;;;;;;;23.27;14.93;;;6.20;94.50;;;;;;5113050;28;20545;-48
2020/12/26 05:59:44;;;;;;;24.08;18.08;;;6.20;94.30;;;;;;5113096;28;20019;-48
2020/12/26 06:02:17;;;;;;;22.35;15.43;;;6.30;94.20;;;;;;5049611;28;20357;-48
2020/12/26 06:04:54;;;;;;;22.50;16.45;;;6.20;94.20;;;;;;5049718;28;20029;-48
2020/12/26 06:07:26;;;;;;;24.10;17.58;;;6.10;94.10;;;;;;5016603;28;20033;-48
2020/12/26 06:09:54;;;;;;;22.13;16.45;;;6.10;94.20;;;;;;5049752;28;20145;-48
2020/12/26 06:12:21;;;;;;;20.05;15.65;;;6.10;94.00;;;;;;5033008;28;20041;-48
2020/12/26 06:14:48;;;;;;;18.02;12.68;;;6.10;93.40;;;;;;5049566;28;20029;-48
2020/12/26 06:17:26;;;;;;;16.23;11.10;;;5.90;93.30;;;;;;5049853;28;20036;-48
2020/12/26 06:19:55;;;;;;;18.75;13.38;;;5.90;93.00;;;;;;5032549;28;20048;-48
2020/12/26 06:22:21;;;;;;;15.60;12.27;;;5.90;93.20;;;;;;5049699;28;20507;-48
2020/12/26 06:24:48;;;;;;;16.13;12.10;;;5.80;93.40;;;;;;5049623;28;20408;-48
2020/12/26 06:27:15;;;;;;;15.95;11.15;;;5.90;93.00;;;;;;5049575;28;20036;-48
2020/12/26 06:29:44;;;;;;;22.25;15.27;;;5.70;93.30;;;;;;5049551;28;20087;-48
2020/12/26 06:32:14;;;;;;;18.35;12.65;;;5.90;93.30;;;;;;5049705;28;20041;-48
2020/12/26 06:34:41;;;;;;;19.60;14.05;;;5.80;93.00;;;;;;5049666;28;20044;-48
2020/12/26 06:37:11;;;;;;;20.73;14.30;;;5.80;93.40;;;;;;5049827;28;20029;-48
2020/12/26 06:39:38;;;;;;;17.40;10.93;;;5.70;93.50;;;;;;5110384;28;20040;-48
2020/12/26 06:42:18;;;;;;;27.30;18.35;;;5.50;93.90;;;;;;5112586;28;20039;-48
2020/12/26 06:44:46;;;;;;;29.38;17.58;;;5.70;93.40;;;;;;5112525;28;20110;-49
2020/12/26 06:47:35;;;;;;;65.88;32.25;;;5.70;92.90;;;;;;5111602;28;20526;-48
2020/12/26 06:50:21;;;;;;;96.38;38.17;;;5.80;93.50;;;;;;5091895;28;20475;-52
2020/12/26 06:52:47;;;;;;;64.03;29.73;;;5.80;93.20;;;;;;5092313;28;20032;-48
2020/12/26 06:55:36;;;;;;;159.13;61.15;;;5.90;93.00;;;;;;5056473;28;20142;-48
2020/12/26 06:58:02;;;;;;;121.38;57.22;;;6.00;92.80;;;;;;5108948;28;20031;-48
2020/12/26 07:00:29;;;;;;;67.72;37.55;;;5.90;93.00;;;;;;5075630;28;20053;-48
2020/12/26 07:03:24;;;;;;;78.25;41.60;;;6.10;92.40;;;;;;5111579;28;20039;-48
2020/12/26 07:05:52;;;;;;;30.58;19.00;;;6.00;92.60;;;;;;5106984;28;20067;-49
2020/12/26 07:08:29;;;;;;;30.73;20.38;;;6.10;92.30;;;;;;5111784;28;20036;-48
2020/12/26 07:10:57;;;;;;;29.90;20.33;;;6.10;92.50;;;;;;5111987;28;20047;-48
2020/12/26 07:13:42;;;;;;;28.17;18.58;;;6.10;92.20;;;;;;5076241;28;20057;-48
2020/12/26 07:16:36;;;;;;;33.17;20.48;;;5.90;92.80;;;;;;5112080;28;20055;-48
2020/12/26 07:19:23;;;;;;;27.67;18.15;;;5.80;93.10;;;;;;5115521;28;20032;-48
2020/12/26 07:21:52;;;;;;;29.05;20.33;;;5.80;93.10;;;;;;5115679;28;20048;-48
2020/12/26 07:24:23;;;;;;;39.85;27.85;;;5.90;93.10;;;;;;5079583;28;20497;-48
2020/12/26 07:26:49;;;;;;;47.20;34.72;;;5.90;93.20;;;;;;5115660;28;20031;-48
2020/12/26 07:29:27;;;;;;;22.63;17.38;;;5.80;93.30;;;;;;5115634;28;20038;-48
2020/12/26 07:31:54;;;;;;;31.20;20.67;;;5.70;93.40;;;;;;5115343;28;20406;-48
2020/12/26 07:34:43;;;;;;;22.45;15.75;;;5.70;93.70;;;;;;5115446;28;20042;-48
2020/12/26 07:37:09;;;;;;;95.25;52.95;;;5.60;93.40;;;;;;5115361;28;20032;-48
2020/12/26 07:39:44;;;;;;;46.42;29.40;;;5.70;93.60;;;;;;5115462;28;20085;-48
2020/12/26 07:42:10;;;;;;;57.90;35.05;;;5.70;93.10;;;;;;5115555;28;20057;-48
2020/12/26 07:44:36;;;;;;;82.13;47.83;;;5.80;92.70;;;;;;5115268;28;20038;-48
2020/12/26 07:47:02;;;;;;;46.85;30.98;;;5.90;92.60;;;;;;5115232;28;20043;-48
2020/12/26 07:49:27;;;;;;;47.72;32.42;;;5.70;92.30;;;;;;5115129;28;20047;-48
2020/12/26 07:52:01;;;;;;;51.58;33.40;;;5.80;92.80;;;;;;5078979;28;20044;-48
2020/12/26 07:54:27;;;;;;;37.92;24.92;;;5.80;92.50;;;;;;5115151;28;20419;-48
2020/12/26 07:56:56;;;;;;;28.63;20.33;;;5.80;92.70;;;;;;5115009;28;20077;-48
2020/12/26 07:59:23;;;;;;;38.15;26.65;;;5.80;92.20;;;;;;5114646;28;20040;-48
2020/12/26 08:01:53;;;;;;;32.13;23.65;;;5.90;92.60;;;;;;5115035;28;20539;-48
2020/12/26 08:04:20;;;;;;;30.35;21.15;;;6.00;92.10;;;;;;5114984;28;20122;-48
2020/12/26 08:06:47;;;;;;;37.88;25.08;;;6.00;91.80;;;;;;5061957;28;20483;-48
2020/12/26 08:09:14;;;;;;;36.35;25.08;;;6.00;91.30;;;;;;5114780;28;20040;-48
2020/12/26 08:11:41;;;;;;;46.88;31.42;;;6.10;91.60;;;;;;5090700;28;20036;-48
2020/12/26 08:14:07;;;;;;;36.45;26.00;;;6.10;91.60;;;;;;5091296;28;20036;-48
2020/12/26 08:16:34;;;;;;;41.17;26.50;;;6.20;91.40;;;;;;5091328;28;20039;-48
2020/12/26 08:19:02;;;;;;;46.08;28.58;;;6.20;90.90;;;;;;5091204;28;20111;-48
2020/12/26 08:21:29;;;;;;;105.68;57.30;;;6.20;91.50;;;;;;5088208;28;20094;-48
2020/12/26 08:24:04;;;;;;;68.03;38.53;;;6.10;91.00;;;;;;5091030;28;20097;-48
2020/12/26 08:26:31;;;;;;;29.80;20.30;;;6.10;90.90;;;;;;5089133;28;20120;-48
2020/12/26 08:29:00;;;;;;;35.20;22.88;;;6.10;90.70;;;;;;5091038;28;20078;-48
2020/12/26 08:31:27;;;;;;;32.58;22.73;;;6.10;91.30;;;;;;5025279;28;20489;-48
2020/12/26 08:34:14;;;;;;;102.07;48.15;;;6.20;90.90;;;;;;5049296;28;20048;-48
2020/12/26 08:36:47;;;;;;;122.18;53.28;;;6.30;90.50;;;;;;5049758;28;20028;-48
2020/12/26 08:39:18;;;;;;;30.20;20.27;;;6.40;90.40;;;;;;5050719;28;20021;-48
2020/12/26 08:41:45;;;;;;;28.67;19.35;;;6.40;89.40;;;;;;5036605;28;20392;-48
2020/12/26 08:44:13;;;;;;;32.30;19.90;;;6.20;89.40;;;;;;5067868;28;20067;-48
2020/12/26 08:46:46;;;;;;;23.60;17.13;;;6.00;89.10;;;;;;5070602;28;20411;-48
2020/12/26 08:49:13;;;;;;;24.35;14.88;;;5.90;90.10;;;;;;5067754;28;20115;-48
2020/12/26 08:51:43;;;;;;;19.13;12.70;;;5.70;90.40;;;;;;5070505;28;20573;-48
2020/12/26 08:54:22;;;;;;;17.88;12.95;;;5.70;90.40;;;;;;5070490;28;20037;-48
2020/12/26 08:56:49;;;;;;;20.92;14.95;;;5.60;90.80;;;;;;5069106;28;20106;-48
2020/12/26 08:59:26;;;;;;;18.42;11.13;;;5.70;90.60;;;;;;5037399;28;20037;-48
2020/12/26 09:01:56;;;;;;;20.33;14.05;;;5.60;91.10;;;;;;5083089;28;20032;-48
2020/12/26 09:04:22;;;;;;;19.52;12.05;;;5.50;91.10;;;;;;5113680;28;20031;-48
2020/12/26 09:06:48;;;;;;;19.52;11.18;;;5.40;90.50;;;;;;5113859;28;20051;-48
2020/12/26 09:09:19;;;;;;;22.38;12.35;;;5.20;91.60;;;;;;5113563;28;20553;-48
2020/12/26 09:11:46;;;;;;;22.33;13.10;;;5.20;92.10;;;;;;5113745;28;20028;-47
2020/12/26 09:14:19;;;;;;;21.60;12.93;;;5.10;92.00;;;;;;5077635;28;20067;-48
2020/12/26 09:16:46;;;;;;;22.42;15.75;;;5.20;91.70;;;;;;5077430;28;20035;-48
2020/12/26 09:19:11;;;;;;;19.10;12.15;;;5.20;91.60;;;;;;5113434;28;20386;-48
2020/12/26 09:21:37;;;;;;;18.20;12.77;;;5.20;91.90;;;;;;5074006;28;20056;-48
2020/12/26 09:24:14;;;;;;;33.22;19.98;;;5.30;91.50;;;;;;5093219;28;20028;-48
2020/12/26 09:26:40;;;;;;;22.08;15.50;;;5.30;92.00;;;;;;5094192;28;20030;-48
2020/12/26 09:29:06;;;;;;;20.75;13.80;;;5.40;91.70;;;;;;5093893;28;20450;-48
2020/12/26 09:31:36;;;;;;;22.15;13.82;;;5.40;91.40;;;;;;5094130;28;20028;-48
2020/12/26 09:34:14;;;;;;;23.20;16.23;;;5.30;91.60;;;;;;5094158;28;20471;-48
2020/12/26 09:36:40;;;;;;;19.70;13.70;;;5.30;91.80;;;;;;5113446;27;20019;-48
2020/12/26 09:39:06;;;;;;;17.80;12.30;;;5.30;92.10;;;;;;5133218;27;20023;-48
2020/12/26 09:41:45;;;;;;;19.40;12.23;;;5.20;91.90;;;;;;5134438;27;20481;-48
2020/12/26 09:44:11;;;;;;;20.63;14.88;;;5.20;92.10;;;;;;5134779;27;20015;-48
2020/12/26 09:46:38;;;;;;;19.73;14.38;;;5.30;92.00;;;;;;5134553;27;20023;-48
2020/12/26 09:49:04;;;;;;;19.77;13.55;;;5.40;91.90;;;;;;5098500;27;20431;-48
2020/12/26 09:51:29;;;;;;;19.35;14.02;;;5.60;91.20;;;;;;5134691;27;20110;-48
2020/12/26 09:53:55;;;;;;;18.08;12.60;;;5.70;91.50;;;;;;5134770;27;20481;-48
2020/12/26 09:56:21;;;;;;;17.25;12.93;;;5.90;90.50;;;;;;5134615;27;20023;-48
2020/12/26 09:58:48;;;;;;;17.85;13.02;;;5.90;89.90;;;;;;5115308;27;20038;-48
2020/12/26 10:01:19;;;;;;;20.23;14.93;;;6.00;90.20;;;;;;5134284;27;20459;-48
2020/12/26 10:03:46;;;;;;;21.97;17.10;;;6.00;89.50;;;;;;5134591;27;20023;-48
2020/12/26 10:06:16;;;;;;;21.55;15.48;;;6.00;90.40;;;;;;5134287;27;20294;-48
2020/12/26 10:08:43;;;;;;;19.25;15.25;;;6.00;90.10;;;;;;5106627;28;20042;-48
2020/12/26 10:11:12;;;;;;;20.80;14.60;;;5.90;90.40;;;;;;5078351;28;20044;-48
2020/12/26 10:13:38;;;;;;;18.50;13.27;;;5.80;90.00;;;;;;5113784;28;20038;-47
2020/12/26 10:16:04;;;;;;;18.17;12.38;;;5.70;90.70;;;;;;5114007;28;20024;-48
2020/12/26 10:18:30;;;;;;;19.88;12.27;;;5.60;91.10;;;;;;5113888;28;20055;-48
2020/12/26 10:20:56;;;;;;;14.82;9.80;;;5.50;91.00;;;;;;5113488;28;20096;-48
2020/12/26 10:23:21;;;;;;;20.52;14.30;;;5.40;91.00;;;;;;5113586;28;20032;-48
2020/12/26 10:25:48;;;;;;;23.00;15.57;;;5.40;91.50;;;;;;5113941;28;20023;-48
2020/12/26 10:28:14;;;;;;;123.90;55.60;;;5.40;91.70;;;;;;5113451;28;20039;-48
2020/12/26 10:30:40;;;;;;;21.35;14.68;;;5.20;91.90;;;;;;5113928;28;20028;-48
2020/12/26 10:33:05;;;;;;;30.90;24.67;;;5.20;92.00;;;;;;5113667;28;20501;-48
2020/12/26 10:35:31;;;;;;;23.88;16.85;;;5.40;92.10;;;;;;5112043;28;20035;-48
2020/12/26 10:37:57;;;;;;;25.85;18.95;;;5.40;91.90;;;;;;5094884;28;20046;-48
2020/12/26 10:40:23;;;;;;;33.10;24.98;;;5.40;91.70;;;;;;5094195;28;20050;-48
2020/12/26 10:42:48;;;;;;;23.13;14.88;;;5.40;91.50;;;;;;5094357;28;20047;-47
2020/12/26 10:45:14;;;;;;;20.73;13.38;;;5.40;92.20;;;;;;5113487;28;20102;-48
2020/12/26 10:47:40;;;;;;;18.35;12.93;;;5.30;92.10;;;;;;5113683;28;20387;-49
2020/12/26 10:50:06;;;;;;;20.20;14.90;;;5.30;92.20;;;;;;5093381;28;20083;-50
2020/12/26 10:52:32;;;;;;;16.77;11.50;;;5.30;92.50;;;;;;5114488;28;20047;-49
2020/12/26 10:54:58;;;;;;;25.13;16.73;;;5.20;92.70;;;;;;5113991;28;20114;-51
2020/12/26 10:57:24;;;;;;;24.10;17.17;;;5.20;92.80;;;;;;5046268;28;20036;-49
2020/12/26 10:59:50;;;;;;;23.73;15.90;;;5.40;92.50;;;;;;5117261;28;20034;-50
2020/12/26 11:02:16;;;;;;;22.15;15.13;;;5.40;92.40;;;;;;5117184;28;20031;-50
2020/12/26 11:04:42;;;;;;;24.05;15.35;;;5.30;92.60;;;;;;5109828;28;20127;-49
2020/12/26 11:07:08;;;;;;;22.63;15.23;;;5.20;92.50;;;;;;5116299;28;20157;-49
2020/12/26 11:09:34;;;;;;;21.17;14.77;;;5.10;93.00;;;;;;5116788;28;20038;-49
2020/12/26 11:12:00;;;;;;;19.20;13.40;;;5.20;93.10;;;;;;5117227;28;20127;-49
2020/12/26 11:14:25;;;;;;;23.65;16.20;;;5.20;93.00;;;;;;5047090;28;20039;-50
2020/12/26 11:16:52;;;;;;;23.05;16.00;;;5.20;93.00;;;;;;5063873;28;20080;-50
2020/12/26 11:19:19;;;;;;;20.42;12.68;;;5.30;93.10;;;;;;5116526;28;20016;-50
2020/12/26 11:21:53;;;;;;;21.17;15.00;;;5.00;93.00;;;;;;5116549;28;20020;-51
2020/12/26 11:24:20;;;;;;;19.40;13.80;;;5.10;93.10;;;;;;5115923;28;20360;-50
2020/12/26 11:26:47;;;;;;;26.88;21.00;;;5.00;92.80;;;;;;5116423;28;20050;-49
2020/12/26 11:29:13;;;;;;;30.00;22.00;;;5.00;92.80;;;;;;5116563;28;20024;-52
2020/12/26 11:31:38;;;;;;;27.08;19.10;;;5.00;93.20;;;;;;5116664;28;20058;-51
2020/12/26 11:34:04;;;;;;;23.88;16.80;;;5.00;92.70;;;;;;5114067;28;20055;-51
2020/12/26 11:36:31;;;;;;;26.02;18.17;;;5.00;92.70;;;;;;5116293;28;20024;-48
2020/12/26 11:38:57;;;;;;;22.00;14.18;;;5.00;92.70;;;;;;5092941;28;20040;-51
2020/12/26 11:41:27;;;;;;;28.73;22.73;;;4.70;93.40;;;;;;5116498;28;20478;-50
2020/12/26 11:43:54;;;;;;;12.48;9.02;;;4.90;93.30;;;;;;5095776;28;20055;-51
2020/12/26 11:46:22;;;;;;;13.82;11.85;;;4.80;93.30;;;;;;5115165;28;20042;-51
2020/12/26 11:48:48;;;;;;;10.20;8.18;;;4.90;93.60;;;;;;5116379;28;20085;-51
2020/12/26 11:51:14;;;;;;;13.80;11.20;;;5.00;92.90;;;;;;5116353;28;20031;-51
2020/12/26 11:53:40;;;;;;;16.58;12.75;;;5.00;93.50;;;;;;5115954;28;20429;-51
2020/12/26 11:56:09;;;;;;;17.45;13.77;;;5.10;93.40;;;;;;5116244;28;20028;-51
2020/12/26 11:58:36;;;;;;;13.73;10.35;;;5.20;93.00;;;;;;5114493;28;20048;-50
2020/12/26 12:01:03;;;;;;;14.38;11.45;;;5.10;92.70;;;;;;5097074;28;20115;-51
2020/12/26 12:03:29;;;;;;;14.27;12.02;;;4.90;93.30;;;;;;5115657;28;20061;-50
2020/12/26 12:05:55;;;;;;;17.27;12.55;;;5.10;93.50;;;;;;5115830;28;20023;-50
2020/12/26 12:08:21;;;;;;;13.50;10.98;;;5.20;93.10;;;;;;5080027;28;20379;-50
2020/12/26 12:10:47;;;;;;;13.85;9.05;;;5.20;92.30;;;;;;5115872;28;20036;-51
2020/12/26 12:13:12;;;;;;;14.90;9.95;;;5.00;93.00;;;;;;5115780;28;20043;-51
2020/12/26 12:15:39;;;;;;;14.18;11.10;;;5.20;92.50;;;;;;5115996;28;20520;-50
2020/12/26 12:18:06;;;;;;;15.32;12.25;;;5.20;92.80;;;;;;5116028;28;20042;-50
2020/12/26 12:20:32;;;;;;;14.63;11.80;;;5.30;93.10;;;;;;5125553;27;20062;-50
2020/12/26 12:22:58;;;;;;;15.00;11.88;;;5.50;92.30;;;;;;5134665;27;20023;-50
2020/12/26 12:25:26;;;;;;;16.58;12.80;;;5.40;92.60;;;;;;5134976;27;20090;-51
2020/12/26 12:27:52;;;;;;;17.45;13.85;;;5.50;91.90;;;;;;5134257;27;20086;-50
2020/12/26 12:30:18;;;;;;;20.90;16.02;;;5.50;92.20;;;;;;5134964;27;20064;-50
2020/12/26 12:32:44;;;;;;;18.50;12.95;;;5.60;91.70;;;;;;5134780;27;20378;-50
2020/12/26 12:35:10;;;;;;;24.17;17.27;;;5.80;91.30;;;;;;5133577;27;20027;-51
2020/12/26 12:37:36;;;;;;;15.00;12.80;;;5.90;91.50;;;;;;5097516;27;20118;-51
2020/12/26 12:40:03;;;;;;;20.38;15.15;;;6.00;90.90;;;;;;5134362;27;20459;-50